createdAt,value
2022-09-14T00:01:35.000Z,74.58
2022-09-14T00:04:00.783Z,74.75
2022-09-14T00:06:24.043Z,75.29
2022-09-14T00:08:51.397Z,75.36
2022-09-14T00:11:15.229Z,75.32
2022-09-14T00:13:39.888Z,75.76
2022-09-14T00:16:08.166Z,75.65
2022-09-14T00:18:31.714Z,75.67
2022-09-14T00:20:59.647Z,75.39
2022-09-14T00:23:22.142Z,75.91
2022-09-14T00:25:44.718Z,75.80
2022-09-14T00:28:07.269Z,75.49
2022-09-14T00:30:29.836Z,76.27
2022-09-14T00:32:52.404Z,75.98
2022-09-14T00:35:14.945Z,75.73
2022-09-14T00:37:37.639Z,75.70
2022-09-14T00:40:00.267Z,75.85
2022-09-14T00:42:22.915Z,76.46
2022-09-14T00:44:48.191Z,76.54
2022-09-14T00:47:12.622Z,76.08
2022-09-14T00:49:38.476Z,76.27
2022-09-14T00:52:09.840Z,76.48
2022-09-14T00:54:33.444Z,76.42
2022-09-14T00:56:59.350Z,77.20
2022-09-14T00:59:29.104Z,76.95
2022-09-14T01:01:52.160Z,77.05
2022-09-14T01:04:14.876Z,77.69
2022-09-14T01:06:48.240Z,77.66
2022-09-14T01:09:22.588Z,77.52
2022-09-14T01:12:03.253Z,77.18
2022-09-14T01:14:51.818Z,77.42
2022-09-14T01:17:23.112Z,77.01
2022-09-14T01:20:05.604Z,77.52
2022-09-14T01:22:40.284Z,78.06
2022-09-14T01:25:32.236Z,78.51
2022-09-14T01:28:00.326Z,77.74
2022-09-14T01:30:23.863Z,77.43
2022-09-14T01:32:52.646Z,77.08
2022-09-14T01:35:37.679Z,77.60
2022-09-14T01:38:08.624Z,77.75
2022-09-14T01:40:39.424Z,78.13
2022-09-14T01:43:10.821Z,79.01
2022-09-14T01:45:34.867Z,78.62
2022-09-14T01:48:03.163Z,78.61
2022-09-14T01:50:31.855Z,79.34
2022-09-14T01:53:23.686Z,79.43
2022-09-14T01:56:07.998Z,79.13
2022-09-14T01:58:40.079Z,78.52
2022-09-14T02:01:05.958Z,78.98
2022-09-14T02:03:43.927Z,79.29
2022-09-14T02:06:14.251Z,79.10
2022-09-14T02:08:37.475Z,78.75
2022-09-14T02:11:00.703Z,78.50
2022-09-14T02:13:24.137Z,78.40
2022-09-14T02:15:46.777Z,78.45
2022-09-14T02:18:09.264Z,78.70
2022-09-14T02:20:39.413Z,78.60
2022-09-14T02:23:02.099Z,78.59
2022-09-14T02:25:24.910Z,78.55
2022-09-14T02:27:49.101Z,77.77
2022-09-14T02:30:11.939Z,77.50
2022-09-14T02:32:52.212Z,77.46
2022-09-14T02:35:27.771Z,78.05
2022-09-14T02:38:16.662Z,78.01
2022-09-14T02:40:46.642Z,78.33
2022-09-14T02:43:09.202Z,77.68
2022-09-14T02:45:31.946Z,77.40
2022-09-14T02:48:18.900Z,77.29
2022-09-14T02:50:57.616Z,76.94
2022-09-14T02:53:43.614Z,76.68
2022-09-14T02:56:09.804Z,76.36
2022-09-14T02:58:37.500Z,76.53
2022-09-14T03:01:00.034Z,76.81
2022-09-14T03:03:22.544Z,77.06
2022-09-14T03:05:45.291Z,76.57
2022-09-14T03:08:10.339Z,76.41
2022-09-14T03:10:33.638Z,76.17
2022-09-14T03:12:56.238Z,76.05
2022-09-14T03:15:18.990Z,76.20
2022-09-14T03:17:46.135Z,76.02
2022-09-14T03:20:09.157Z,76.46
2022-09-14T03:22:32.962Z,76.61
2022-09-14T03:24:55.548Z,76.57
2022-09-14T03:27:18.147Z,76.77
2022-09-14T03:29:40.918Z,76.96
2022-09-14T03:32:03.508Z,76.81
2022-09-14T03:34:26.194Z,76.72
2022-09-14T03:36:48.768Z,77.01
2022-09-14T03:39:12.512Z,76.93
2022-09-14T03:41:35.013Z,76.35
2022-09-14T03:43:57.566Z,76.58
2022-09-14T03:46:23.507Z,76.55
2022-09-14T03:48:46.226Z,76.48
2022-09-14T03:51:10.283Z,76.40
2022-09-14T03:53:33.676Z,76.43
2022-09-14T03:55:56.240Z,76.21
2022-09-14T03:58:19.103Z,76.55
2022-09-14T04:00:41.672Z,75.98
2022-09-14T04:03:04.463Z,75.73
2022-09-14T04:05:26.999Z,75.52
2022-09-14T04:07:49.589Z,75.58
2022-09-14T04:10:12.098Z,75.62
2022-09-14T04:12:38.597Z,75.90
2022-09-14T04:15:01.020Z,75.92
2022-09-14T04:17:25.135Z,75.94
2022-09-14T04:19:47.697Z,75.63
2022-09-14T04:22:10.309Z,75.50
2022-09-14T04:24:32.763Z,75.39
2022-09-14T04:26:55.353Z,75.80
2022-09-14T04:29:18.109Z,75.93
2022-09-14T04:31:41.171Z,75.90
2022-09-14T04:34:03.758Z,75.61
2022-09-14T04:36:29.543Z,75.49
2022-09-14T04:38:54.258Z,75.17
2022-09-14T04:41:20.560Z,75.16
2022-09-14T04:43:44.677Z,75.21
2022-09-14T04:46:10.863Z,75.10
2022-09-14T04:48:35.300Z,74.76
2022-09-14T04:51:07.739Z,74.86
2022-09-14T04:53:30.553Z,74.43
2022-09-14T04:55:53.083Z,74.77
2022-09-14T04:58:15.916Z,74.65
2022-09-14T05:00:39.639Z,74.89
2022-09-14T05:03:03.751Z,75.27
2022-09-14T05:05:26.453Z,75.19
2022-09-14T05:07:49.195Z,75.33
2022-09-14T05:10:12.051Z,75.09
2022-09-14T05:12:34.576Z,74.93
2022-09-14T05:14:57.164Z,74.63
2022-09-14T05:17:19.744Z,74.88
2022-09-14T05:19:42.382Z,75.55
2022-09-14T05:22:04.926Z,74.99
2022-09-14T05:24:27.721Z,74.35
2022-09-14T05:26:52.533Z,74.15
2022-09-14T05:29:17.355Z,74.07
2022-09-14T05:31:40.401Z,74.61
2022-09-14T05:34:03.131Z,74.36
2022-09-14T05:36:26.218Z,74.62
2022-09-14T05:38:49.067Z,74.89
2022-09-14T05:41:13.985Z,73.67
2022-09-14T05:43:37.223Z,73.67
2022-09-14T05:46:04.795Z,73.06
2022-09-14T05:48:27.884Z,72.79
2022-09-14T05:50:58.593Z,72.52
2022-09-14T05:53:21.401Z,73.02
2022-09-14T05:55:44.169Z,72.52
2022-09-14T05:58:07.031Z,72.18
2022-09-14T06:00:29.925Z,72.20
2022-09-14T06:02:55.210Z,72.23
2022-09-14T06:05:18.694Z,72.86
2022-09-14T06:07:41.873Z,72.99
2022-09-14T06:10:04.733Z,73.17
2022-09-14T06:12:28.116Z,72.50
2022-09-14T06:14:50.756Z,72.35
2022-09-14T06:17:14.842Z,72.15
2022-09-14T06:19:38.491Z,72.18
2022-09-14T06:22:01.114Z,72.07
2022-09-14T06:24:23.756Z,71.55
2022-09-14T06:26:46.332Z,70.86
2022-09-14T06:29:09.093Z,70.55
2022-09-14T06:31:31.847Z,70.64
2022-09-14T06:33:54.967Z,71.03
2022-09-14T06:36:19.949Z,70.07
2022-09-14T06:38:42.919Z,69.72
2022-09-14T06:41:09.049Z,69.11
2022-09-14T06:43:33.914Z,69.32
2022-09-14T06:46:08.352Z,69.54
2022-09-14T06:48:34.634Z,70.19
2022-09-14T06:50:57.469Z,70.79
2022-09-14T06:53:20.808Z,71.94
2022-09-14T06:56:23.085Z,73.20
2022-09-14T06:58:47.911Z,74.27
2022-09-14T07:01:14.455Z,75.30
2022-09-14T07:03:38.777Z,76.13
2022-09-14T07:06:06.546Z,76.40
2022-09-14T07:08:29.512Z,76.82
2022-09-14T07:10:58.941Z,76.36
2022-09-14T07:13:21.774Z,75.49
2022-09-14T07:16:05.361Z,74.95
2022-09-14T07:18:32.915Z,74.40
2022-09-14T07:20:55.937Z,74.29
2022-09-14T07:23:18.623Z,75.32
2022-09-14T07:25:42.387Z,74.00
2022-09-14T07:28:04.955Z,72.54
2022-09-14T07:30:28.325Z,72.95
2022-09-14T07:32:51.154Z,71.68
2022-09-14T07:35:13.740Z,71.23
2022-09-14T07:37:36.501Z,70.96
2022-09-14T07:39:59.200Z,71.50
2022-09-14T07:42:21.879Z,71.03
2022-09-14T07:44:44.713Z,70.34
2022-09-14T07:47:07.522Z,71.12
2022-09-14T07:49:30.567Z,70.68
2022-09-14T07:51:54.119Z,70.89
2022-09-14T07:54:19.830Z,72.38
2022-09-14T07:56:43.807Z,73.09
2022-09-14T07:59:31.336Z,74.19
2022-09-14T08:01:50.397Z,74.85
2022-09-14T08:04:13.282Z,74.28
2022-09-14T08:06:37.248Z,74.76
2022-09-14T08:08:59.874Z,74.51
2022-09-14T08:11:25.198Z,74.67
2022-09-14T08:13:56.865Z,74.28
2022-09-14T08:16:21.188Z,73.59
2022-09-14T08:18:43.868Z,72.63
2022-09-14T08:21:09.689Z,72.53
2022-09-14T08:23:33.117Z,72.22
2022-09-14T08:25:55.688Z,70.55
2022-09-14T08:28:18.168Z,71.64
2022-09-14T08:30:41.443Z,71.44
2022-09-14T08:33:04.075Z,70.79
2022-09-14T08:35:53.656Z,69.79
2022-09-14T08:38:09.718Z,69.27
2022-09-14T08:40:33.396Z,69.69
2022-09-14T08:42:59.224Z,68.53
2022-09-14T08:45:24.183Z,68.06
2022-09-14T08:47:48.702Z,68.73
2022-09-14T08:50:20.286Z,68.48
2022-09-14T08:52:53.683Z,67.02
2022-09-14T08:55:41.550Z,66.60
2022-09-14T08:58:10.124Z,67.50
2022-09-14T09:00:55.506Z,67.89
2022-09-14T09:03:23.949Z,67.52
2022-09-14T09:06:01.122Z,67.13
2022-09-14T09:08:39.457Z,66.45
2022-09-14T09:11:05.707Z,66.51
2022-09-14T09:13:35.826Z,66.83
2022-09-14T09:16:02.946Z,66.04
2022-09-14T09:18:44.134Z,64.98
2022-09-14T09:21:20.236Z,64.53
2022-09-14T09:23:44.192Z,64.50
2022-09-14T09:26:09.729Z,63.52
2022-09-14T09:28:34.048Z,63.11
2022-09-14T09:31:05.274Z,63.20
2022-09-14T09:33:50.597Z,62.76
2022-09-14T09:36:18.578Z,64.27
2022-09-14T09:38:41.966Z,63.82
2022-09-14T09:41:13.251Z,63.19
2022-09-14T09:43:59.070Z,61.30
2022-09-14T09:46:22.508Z,61.13
2022-09-14T09:48:45.889Z,61.10
2022-09-14T09:51:19.808Z,60.13
2022-09-14T09:54:09.899Z,59.07
2022-09-14T09:56:36.562Z,58.38
2022-09-14T09:58:59.434Z,57.80
2022-09-14T10:01:31.388Z,57.21
2022-09-14T10:04:09.201Z,57.47
2022-09-14T10:06:32.916Z,56.96
2022-09-14T10:08:57.528Z,57.46
2022-09-14T10:11:38.019Z,57.58
2022-09-14T10:14:01.706Z,57.41
2022-09-14T10:16:30.760Z,57.75
2022-09-14T10:18:54.291Z,59.02
2022-09-14T10:21:22.245Z,61.60
2022-09-14T10:23:45.303Z,63.04
2022-09-14T10:26:10.604Z,63.21
2022-09-14T10:28:34.154Z,62.28
2022-09-14T10:31:08.707Z,63.18
2022-09-14T10:33:32.591Z,63.45
2022-09-14T10:36:02.182Z,62.07
2022-09-14T10:39:07.825Z,63.00
2022-09-14T10:42:00.485Z,63.52
2022-09-14T10:44:44.722Z,63.55
2022-09-14T10:47:10.252Z,63.76
2022-09-14T10:49:41.676Z,64.21
2022-09-14T10:52:20.344Z,63.34
2022-09-14T10:55:10.565Z,63.81
2022-09-14T10:57:41.037Z,62.56
2022-09-14T11:00:13.273Z,61.94
2022-09-14T11:02:54.093Z,61.22
2022-09-14T11:05:29.568Z,61.54
2022-09-14T11:08:04.948Z,60.54
2022-09-14T11:10:56.451Z,60.65
2022-09-14T11:13:51.512Z,61.24
2022-09-14T11:17:02.056Z,60.10
2022-09-14T11:19:53.144Z,60.24
2022-09-14T11:22:36.878Z,60.93
2022-09-14T11:25:06.357Z,61.09
2022-09-14T11:27:52.123Z,61.48
2022-09-14T11:30:46.915Z,61.67
2022-09-14T11:33:31.546Z,61.64
2022-09-14T11:36:01.961Z,62.35
2022-09-14T11:38:31.004Z,61.78
2022-09-14T11:40:57.539Z,60.71
2022-09-14T11:43:43.966Z,60.41
2022-09-14T11:46:11.856Z,59.40
2022-09-14T11:48:43.370Z,60.27
2022-09-14T11:51:08.531Z,60.24
2022-09-14T11:53:32.781Z,59.08
2022-09-14T11:55:55.676Z,58.91
2022-09-14T11:58:21.926Z,58.72
2022-09-14T12:01:05.175Z,58.49
2022-09-14T12:03:52.263Z,59.88
2022-09-14T12:06:30.138Z,58.78
2022-09-14T12:08:52.938Z,58.90
2022-09-14T12:11:17.194Z,58.65
2022-09-14T12:13:40.045Z,58.08
2022-09-14T12:16:09.791Z,58.24
2022-09-14T12:18:35.990Z,58.66
2022-09-14T12:21:18.377Z,59.34
2022-09-14T12:23:42.035Z,58.12
2022-09-14T12:26:10.772Z,58.52
2022-09-14T12:28:36.203Z,59.55
2022-09-14T12:30:58.748Z,58.52
2022-09-14T12:33:36.299Z,58.39
2022-09-14T12:36:20.866Z,57.29
2022-09-14T12:39:19.017Z,56.89
2022-09-14T12:41:41.567Z,56.34
2022-09-14T12:44:25.136Z,55.92
2022-09-14T12:46:47.990Z,55.69
2022-09-14T12:49:37.141Z,56.46
2022-09-14T12:52:08.943Z,56.06
2022-09-14T12:54:34.094Z,55.76
2022-09-14T12:57:15.486Z,58.27
2022-09-14T13:00:13.587Z,59.20
2022-09-14T13:03:00.651Z,58.36
2022-09-14T13:05:27.583Z,58.34
2022-09-14T13:07:51.108Z,57.37
2022-09-14T13:10:39.937Z,58.18
2022-09-14T13:13:08.578Z,56.21
2022-09-14T13:15:36.885Z,56.46
2022-09-14T13:18:01.015Z,56.40
2022-09-14T13:20:23.725Z,55.85
2022-09-14T13:22:46.328Z,55.88
2022-09-14T13:25:36.269Z,55.88
2022-09-14T13:28:14.195Z,54.93
2022-09-14T13:30:36.906Z,55.21
2022-09-14T13:33:00.245Z,55.68
2022-09-14T13:35:30.145Z,55.92
2022-09-14T13:37:53.602Z,56.54
2022-09-14T13:40:17.074Z,56.94
2022-09-14T13:42:41.282Z,56.15
2022-09-14T13:45:05.879Z,56.06
2022-09-14T13:47:29.038Z,56.20
2022-09-14T13:49:54.458Z,55.88
2022-09-14T13:52:25.878Z,55.50
2022-09-14T13:55:28.338Z,56.06
2022-09-14T13:58:09.254Z,56.38
2022-09-14T14:00:33.355Z,57.05
2022-09-14T14:03:02.176Z,56.74
2022-09-14T14:05:31.431Z,56.14
2022-09-14T14:07:56.599Z,55.60
2022-09-14T14:10:30.127Z,54.95
2022-09-14T14:12:52.761Z,54.99
2022-09-14T14:15:18.269Z,54.58
2022-09-14T14:17:41.573Z,54.33
2022-09-14T14:20:32.612Z,55.07
2022-09-14T14:23:13.197Z,54.66
2022-09-14T14:25:43.373Z,54.85
2022-09-14T14:28:34.365Z,54.29
2022-09-14T14:31:07.713Z,54.97
2022-09-14T14:33:31.284Z,54.42
2022-09-14T14:35:56.469Z,54.77
2022-09-14T14:38:19.100Z,53.53
2022-09-14T14:40:42.996Z,53.97
2022-09-14T14:43:07.653Z,54.28
2022-09-14T14:45:35.406Z,53.66
2022-09-14T14:48:00.013Z,54.76
2022-09-14T14:50:26.184Z,55.26
2022-09-14T14:52:50.282Z,55.97
2022-09-14T14:55:13.003Z,55.94
2022-09-14T14:57:35.749Z,55.83
2022-09-14T14:59:58.512Z,56.67
2022-09-14T15:02:21.331Z,56.33
2022-09-14T15:04:43.820Z,57.60
2022-09-14T15:07:06.562Z,57.73
2022-09-14T15:09:30.140Z,57.33
2022-09-14T15:11:54.732Z,57.47
2022-09-14T15:14:20.198Z,58.09
2022-09-14T15:16:44.387Z,58.07
2022-09-14T15:19:07.327Z,57.59
2022-09-14T15:21:30.152Z,57.65
2022-09-14T15:23:52.688Z,58.47
2022-09-14T15:26:15.395Z,58.20
2022-09-14T15:28:38.803Z,58.85
2022-09-14T15:31:04.860Z,58.74
2022-09-14T15:33:29.637Z,58.91
2022-09-14T15:35:56.711Z,58.85
2022-09-14T15:38:19.183Z,59.60
2022-09-14T15:40:41.871Z,60.33
2022-09-14T15:43:04.355Z,59.82
2022-09-14T15:45:26.857Z,63.36
2022-09-14T15:47:49.296Z,63.74
2022-09-14T15:50:11.886Z,63.91
2022-09-14T15:52:36.213Z,63.89
2022-09-14T15:54:58.895Z,64.27
2022-09-14T15:57:21.524Z,65.00
2022-09-14T15:59:44.130Z,65.52
2022-09-14T16:02:07.205Z,65.98
2022-09-14T16:04:36.514Z,66.47
2022-09-14T16:06:58.958Z,65.60
2022-09-14T16:09:22.483Z,64.99
2022-09-14T16:11:44.986Z,64.47
2022-09-14T16:14:09.419Z,63.95
2022-09-14T16:16:32.631Z,64.43
2022-09-14T16:18:55.219Z,63.97
2022-09-14T16:21:23.622Z,64.05
2022-09-14T16:23:50.137Z,64.31
2022-09-14T16:26:22.171Z,64.28
2022-09-14T16:28:47.981Z,64.54
2022-09-14T16:31:16.338Z,64.56
2022-09-14T16:33:44.214Z,64.90
2022-09-14T16:36:09.480Z,64.83
2022-09-14T16:38:32.112Z,64.90
2022-09-14T16:40:59.568Z,65.04
2022-09-14T16:43:22.577Z,65.21
2022-09-14T16:45:45.328Z,65.42
2022-09-14T16:48:07.994Z,65.86
2022-09-14T16:50:30.585Z,66.24
2022-09-14T16:52:53.130Z,65.93
2022-09-14T16:55:15.793Z,66.22
2022-09-14T16:57:38.594Z,66.43
2022-09-14T17:00:01.402Z,66.76
2022-09-14T17:02:24.216Z,66.99
2022-09-14T17:04:46.888Z,67.88
2022-09-14T17:07:10.354Z,68.48
2022-09-14T17:09:33.116Z,68.80
2022-09-14T17:11:57.179Z,69.12
2022-09-14T17:14:22.643Z,69.55
2022-09-14T17:16:45.607Z,70.64
2022-09-14T17:19:08.393Z,71.22
2022-09-14T17:21:36.449Z,70.79
2022-09-14T17:23:59.375Z,71.14
2022-09-14T17:26:23.177Z,71.25
2022-09-14T17:28:49.410Z,71.40
2022-09-14T17:31:14.632Z,71.96
2022-09-14T17:33:37.226Z,73.19
2022-09-14T17:36:00.396Z,73.58
2022-09-14T17:38:26.556Z,73.70
2022-09-14T17:40:49.486Z,73.99
2022-09-14T17:43:12.338Z,74.74
2022-09-14T17:45:50.640Z,75.36
2022-09-14T17:48:13.278Z,75.54
2022-09-14T17:50:39.131Z,75.75
2022-09-14T17:53:01.697Z,75.96
2022-09-14T17:55:24.738Z,76.06
2022-09-14T17:58:28.616Z,76.14
2022-09-14T18:00:51.278Z,76.12
2022-09-14T18:03:13.892Z,76.68
2022-09-14T18:05:36.924Z,76.30
2022-09-14T18:07:59.554Z,75.91
2022-09-14T18:10:22.293Z,76.23
2022-09-14T18:12:46.186Z,76.21
2022-09-14T18:15:09.640Z,76.18
2022-09-14T18:17:32.344Z,76.30
2022-09-14T18:19:58.535Z,76.20
2022-09-14T18:22:21.268Z,76.53
2022-09-14T18:24:44.213Z,77.60
2022-09-14T18:27:06.814Z,77.85
2022-09-14T18:29:31.553Z,78.09
2022-09-14T18:31:54.332Z,77.98
2022-09-14T18:34:17.782Z,78.15
2022-09-14T18:36:40.360Z,78.28
2022-09-14T18:39:04.498Z,77.84
2022-09-14T18:41:29.685Z,78.03
2022-09-14T18:43:53.334Z,78.54
2022-09-14T18:46:18.025Z,78.67
2022-09-14T18:48:43.747Z,78.76
2022-09-14T18:51:06.713Z,78.90
2022-09-14T18:53:32.115Z,78.77
2022-09-14T18:55:54.768Z,78.69
2022-09-14T18:58:17.412Z,78.88
2022-09-14T19:00:45.674Z,79.21
2022-09-14T19:03:09.917Z,78.72
2022-09-14T19:05:33.889Z,78.80
2022-09-14T19:07:56.352Z,78.86
2022-09-14T19:10:19.398Z,79.68
2022-09-14T19:12:42.124Z,80.17
2022-09-14T19:15:05.117Z,80.35
2022-09-14T19:17:27.968Z,80.57
2022-09-14T19:19:50.448Z,80.94
2022-09-14T19:22:13.056Z,81.11
2022-09-14T19:24:35.633Z,81.03
2022-09-14T19:26:58.196Z,81.10
2022-09-14T19:29:23.388Z,81.52
2022-09-14T19:31:51.014Z,81.64
2022-09-14T19:34:13.563Z,81.83
2022-09-14T19:36:36.144Z,81.92
2022-09-14T19:39:01.864Z,82.03
2022-09-14T19:41:44.343Z,81.83
2022-09-14T19:44:26.740Z,81.44
2022-09-14T19:46:50.055Z,80.89
2022-09-14T19:49:21.751Z,80.61
2022-09-14T19:51:45.368Z,79.70
2022-09-14T19:54:09.243Z,78.82
2022-09-14T19:56:32.566Z,77.83
2022-09-14T19:58:57.896Z,77.13
2022-09-14T20:01:22.673Z,76.49
2022-09-14T20:03:46.255Z,75.90
2022-09-14T20:06:12.129Z,75.56
2022-09-14T20:08:36.265Z,75.02
2022-09-14T20:11:16.573Z,74.64
2022-09-14T20:13:41.866Z,74.23
2022-09-14T20:16:28.736Z,73.80
2022-09-14T20:18:52.883Z,73.51
2022-09-14T20:21:18.896Z,73.51
2022-09-14T20:23:57.972Z,73.41
2022-09-14T20:26:26.612Z,73.04
2022-09-14T20:28:49.896Z,73.23
2022-09-14T20:31:13.777Z,72.91
2022-09-14T20:33:37.212Z,72.75
2022-09-14T20:36:14.717Z,72.43
2022-09-14T20:38:42.669Z,72.32
2022-09-14T20:41:07.963Z,72.47
2022-09-14T20:43:32.377Z,72.29
2022-09-14T20:46:04.721Z,72.97
2022-09-14T20:48:27.990Z,72.73
2022-09-14T20:50:52.089Z,72.71
2022-09-14T20:53:14.710Z,72.92
2022-09-14T20:55:37.252Z,73.14
2022-09-14T20:57:59.909Z,73.30
2022-09-14T21:00:22.605Z,72.88
2022-09-14T21:02:50.705Z,72.68
2022-09-14T21:05:13.288Z,72.38
2022-09-14T21:07:35.906Z,72.34
2022-09-14T21:09:59.552Z,72.20
2022-09-14T21:12:22.397Z,71.94
2022-09-14T21:14:45.399Z,71.73
2022-09-14T21:17:08.131Z,71.38
2022-09-14T21:19:31.318Z,71.49
2022-09-14T21:21:54.309Z,71.38
2022-09-14T21:24:18.767Z,71.27
2022-09-14T21:26:42.950Z,71.71
2022-09-14T21:29:07.634Z,71.73
2022-09-14T21:31:30.421Z,71.52
2022-09-14T21:33:54.802Z,71.53
2022-09-14T21:36:30.735Z,71.83
2022-09-14T21:38:55.878Z,71.25
2022-09-14T21:41:19.476Z,71.83
2022-09-14T21:43:42.684Z,71.55
2022-09-14T21:46:06.252Z,71.32
2022-09-14T21:48:29.240Z,71.42
2022-09-14T21:51:01.619Z,71.16
2022-09-14T21:53:25.544Z,71.58
2022-09-14T21:55:49.361Z,71.50
2022-09-14T21:58:12.187Z,71.52
2022-09-14T22:00:35.206Z,71.72
2022-09-14T22:02:58.147Z,71.11
2022-09-14T22:05:21.215Z,71.36
2022-09-14T22:07:44.057Z,71.14
2022-09-14T22:10:08.104Z,70.83
2022-09-14T22:12:31.000Z,71.12
2022-09-14T22:14:53.483Z,71.03
2022-09-14T22:17:34.666Z,71.14
2022-09-14T22:20:00.660Z,71.31
2022-09-14T22:22:23.196Z,71.35
2022-09-14T22:24:45.737Z,71.24
2022-09-14T22:27:09.757Z,71.77
2022-09-14T22:29:32.894Z,71.62
2022-09-14T22:31:55.679Z,71.42
2022-09-14T22:34:18.640Z,71.24
2022-09-14T22:36:41.794Z,71.71
2022-09-14T22:39:05.241Z,71.71
2022-09-14T22:41:28.709Z,71.50
2022-09-14T22:43:52.308Z,71.80
2022-09-14T22:46:16.647Z,71.75
2022-09-14T22:48:40.111Z,71.83
2022-09-14T22:51:04.367Z,72.35
2022-09-14T22:53:28.697Z,72.15
2022-09-14T22:55:52.262Z,72.15
2022-09-14T22:58:17.265Z,71.87
2022-09-14T23:00:40.350Z,71.76
2022-09-14T23:03:03.196Z,72.18
2022-09-14T23:05:25.888Z,72.11
2022-09-14T23:07:48.935Z,71.94
2022-09-14T23:10:11.769Z,72.22
2022-09-14T23:12:34.503Z,72.59
2022-09-14T23:14:57.387Z,72.98
2022-09-14T23:17:20.147Z,73.10
2022-09-14T23:19:43.543Z,73.08
2022-09-14T23:22:06.758Z,73.38
2022-09-14T23:24:29.888Z,73.48
2022-09-14T23:26:53.063Z,73.90
2022-09-14T23:29:17.053Z,73.89
2022-09-14T23:31:39.980Z,74.39
2022-09-14T23:34:04.326Z,74.47
2022-09-14T23:36:28.825Z,74.49
2022-09-14T23:38:52.587Z,74.27
2022-09-14T23:41:17.280Z,74.71
2022-09-14T23:43:40.336Z,74.27
2022-09-14T23:46:03.706Z,74.35
2022-09-14T23:48:27.426Z,73.84
2022-09-14T23:51:00.984Z,73.87
2022-09-14T23:53:24.128Z,73.46
2022-09-14T23:55:46.855Z,73.32
2022-09-14T23:58:09.961Z,73.13
